ホーチミン の空港の天気 - METARとTAF

タンソンニャット国際空港 (ホーチミン) ( VVTS / SGN ) - ベトナム ホーチミン市
飛行場実況気象(Metar)
観測時間02/22 01:00 ICT (02/21 18:00 UTC)
風向・風速南東 3m/s
視程10km以上
天気現象
少しの雲 雲底高度 520m
気温27℃
湿度79%
気圧1011hPa
METARVVTS 211800Z 13005KT 100V160 9999 FEW017 27/23 Q1011 NOSIG
過去の天気等 Google飛行場航空写真 Wunderground天気予報

過去48時間のMETAR

飛行場予報(TAF)
発表時間: 2/22 00:00 ICT (2/21 17:00 UTC)
予報対象時間: 22日1時 ICT ~ 23日7時 ICT
風向・風速南東 4m/s
視程10km以上
全天の4割程度の雲 雲底高度 520m
全天の4割程度の雲 雲底高度 1220m
TAF VVTS 211700Z 2118/2224 14008KT 9999 SCT017 SCT040